Cheyenne Regional Jerry Olson Field
KCYS : now visible

Airfield :











YOU CAN JOIN US ON...

 
LOGIN :

Register | Disclaimer

   EN    FR    IT 

 









Legend :    VFR   Marginal VFR   IFR   Intensive IFR   Very Intensive IFR
Visi :
Ceiling :
>= 8 km
>= 3000ft
5 to 8 km
1000 to 3000 ft
1500m to 5 km
500 to 1000 ft
800 to 1500m
200 to 500 ft
< 800m
< 200 ft
Symbols :   Thunderstorms  Fog  Heavy snow  Heavy precipitations  Wind > 20 kt






- Airport Elevation : 6159 ft
- IATA code : CYS


KCYS - Cheyenne Regional Jerry Olson Field

CURRENT METAR :
  • 280753Z AUTO 25018G32KT 10SM CLR 03/M10 A2963 RMK AO2 PK WND 24036/0723 SLP021 T00281100 $

EXPIRED METARs :
  • 280653Z AUTO 27032G46KT 10SM CLR 03/M10 A2964 RMK AO2 PK WND 26059/0627 SLP029 T00331100 400561028 $
  • 280553Z AUTO VRB05KT 10SM CLR 03/M09 A2969 RMK AO2 SLP053 T00331094 10039 20022 58004 $

TAF KCYS
Valid from the 28 at 06:00 until the 29 at 06:00 UTC


280520Z 2806/2906 26035G50KT P6SM FEW200 WS020/26045KT
FM281100 26025G35KT P6SM SCT200 WS020/26055KT
FM281400 25014G22KT P6SM SCT200 WS020/25050KT
FM290100 29010KT 6SM -SN BR BKN090
FM290300 01010KT 4SM -SN BR BKN030
KZDV FIR / North America



MET'MAP, your aeronautical weather chart ! - Copyright ORBIFLY December 2007 - Disclaimer

ORBIFLY MET'MAP TEAM :

Programming & Development : Alexandra Zaïnal
Original concept : Baudouin d'Aumeries
Technical & hardware support : Manuel Goepfert
Assistance : Marc-Olivier Méhu




SOURCES & CREDITS :

   NOAA       Earth
Advisory